Highwood, Illinois
Current Conditions -  °F | °C
As of 10:52 AM on Friday 31 Oct 2014 (Local Time) from KPWK Reporting Station
Overcast Overcast  
Wind Chill: 25°   Ceiling: 3300
Heat Index: 37°   Visibility: 9mi
Dew Point: 26°   Wind: 25mph
Humidity: 65%   Direction: 340°NNW
Pressure: 30.17"   Gusts: 41mph
Location:  42.2°N, 87.81°W
Report Text: KPWK 311552Z 34022G36KT 9SM FEW027 BKN033 OVC045 03/M03 A3017 RMK AO2 PK WND 33038/1528 SNB1454E10 SLP221 P0000 T00281033
Loading
Personal Weather Stations






























Interactive Weather Map
Tropical Storm Tracking
New forecast layout! Learn more

10-Day Weather Forecast

Advertisements
Track Severe Weather on mobile